Time;durP1;ratioP1;P1;durP2;ratioP2;P2;SDS_P1;SDS_P2;PMS_P1;PMS_P2;Temp;Humidity;BMP_temperature;BMP_pressure;BME280_temperature;BME280_humidity;BME280_pressure;Samples;Min_cycle;Max_cycle;Signal;HPM_P1;HPM_P2
2021/06/12 00:02:19;;;;;;;16.33;15.13;;;;;;;15.87;100.00;98222.09;5125521;27;20683;-71
2021/06/12 00:04:50;;;;;;;16.33;15.20;;;;;;;15.76;100.00;98221.59;5129444;27;20300;-72
2021/06/12 00:07:22;;;;;;;17.60;16.13;;;;;;;15.86;100.00;98223.94;5123156;27;20569;-70
2021/06/12 00:09:50;;;;;;;16.93;15.67;;;;;;;15.83;100.00;98224.34;5125444;27;20257;-70
2021/06/12 00:12:17;;;;;;;16.40;15.20;;;;;;;15.70;100.00;98229.53;5124148;27;20221;-70
2021/06/12 00:14:45;;;;;;;17.30;15.80;;;;;;;15.71;100.00;98220.50;5126064;27;20208;-74
2021/06/12 00:17:12;;;;;;;17.13;15.77;;;;;;;15.86;100.00;98221.28;5132336;27;20388;-69
2021/06/12 00:19:40;;;;;;;18.30;16.90;;;;;;;15.86;100.00;98220.44;5128136;27;20703;-71
2021/06/12 00:22:08;;;;;;;17.07;15.77;;;;;;;15.77;100.00;98227.78;5123812;27;20363;-71
2021/06/12 00:24:36;;;;;;;17.33;16.03;;;;;;;15.77;100.00;98217.91;5136317;27;20209;-70
2021/06/12 00:27:05;;;;;;;17.63;16.33;;;;;;;15.79;100.00;98217.72;5128809;27;20309;-69
2021/06/12 00:29:32;;;;;;;16.87;15.73;;;;;;;15.62;100.00;98219.84;5128737;27;20270;-73
2021/06/12 00:32:00;;;;;;;17.50;16.20;;;;;;;15.67;100.00;98216.56;5132157;27;20239;-71
2021/06/12 00:34:27;;;;;;;17.30;16.03;;;;;;;15.52;100.00;98216.63;5130483;27;20612;-73
2021/06/12 00:36:55;;;;;;;17.33;16.13;;;;;;;15.47;100.00;98222.56;5126924;27;20228;-72
2021/06/12 00:39:22;;;;;;;19.57;17.77;;;;;;;15.42;100.00;98216.97;5118673;27;20691;-68
2021/06/12 00:41:51;;;;;;;19.13;17.40;;;;;;;15.54;100.00;98218.13;5129493;27;20198;-71
2021/06/12 00:44:18;;;;;;;17.90;16.33;;;;;;;15.44;100.00;98212.25;5124782;27;20604;-71
2021/06/12 00:46:46;;;;;;;17.97;16.37;;;;;;;15.31;100.00;98213.75;5134433;27;20216;-71
2021/06/12 00:49:13;;;;;;;18.70;17.10;;;;;;;15.32;100.00;98214.59;5126895;27;20201;-69
2021/06/12 00:51:41;;;;;;;18.30;17.00;;;;;;;15.24;100.00;98212.88;5131691;27;20223;-72
2021/06/12 00:54:08;;;;;;;18.47;17.17;;;;;;;15.18;100.00;98214.47;5128901;27;20208;-72
2021/06/12 00:56:36;;;;;;;19.07;17.70;;;;;;;15.13;100.00;98219.53;5125120;27;20239;-73
2021/06/12 00:59:05;;;;;;;18.40;17.07;;;;;;;15.10;100.00;98211.88;5126852;27;20205;-71
2021/06/12 01:01:48;;;;;;;18.57;16.97;;;;;;;14.99;100.00;98215.91;5124923;27;20213;-73
2021/06/12 01:04:16;;;;;;;17.90;16.70;;;;;;;14.96;100.00;98210.91;5132816;27;20227;-72
2021/06/12 01:06:45;;;;;;;19.17;17.73;;;;;;;14.93;100.00;98211.28;5136049;27;20260;-72
2021/06/12 01:09:13;;;;;;;18.83;17.43;;;;;;;14.93;100.00;98211.28;5125087;27;20212;-71
2021/06/12 01:11:49;;;;;;;17.90;16.43;;;;;;;14.88;100.00;98208.34;5124350;27;20606;-70
2021/06/12 01:14:20;;;;;;;18.23;16.83;;;;;;;14.88;100.00;98200.34;5129442;27;20269;-71
2021/06/12 01:16:52;;;;;;;18.43;16.87;;;;;;;14.98;100.00;98202.72;5124702;27;20220;-71
2021/06/12 01:19:32;;;;;;;18.90;17.27;;;;;;;14.98;100.00;98203.56;5129813;27;20201;-70
2021/06/12 01:22:02;;;;;;;18.17;16.93;;;;;;;14.93;100.00;98203.28;5129211;27;20204;-71
2021/06/12 01:25:00;;;;;;;17.63;16.23;;;;;;;14.83;100.00;98200.06;5128672;27;20307;-73
2021/06/12 01:27:46;;;;;;;17.90;16.43;;;;;;;14.88;100.00;98197.69;5112361;27;20247;-71
2021/06/12 01:30:17;;;;;;;17.47;16.10;;;;;;;15.03;100.00;98201.16;5127396;27;20197;-72
2021/06/12 01:32:49;;;;;;;19.07;17.67;;;;;;;15.10;100.00;98195.88;5124960;27;20577;-72
2021/06/12 01:35:23;;;;;;;18.50;17.00;;;;;;;15.03;100.00;98203.00;5122161;27;20201;-71
2021/06/12 01:37:52;;;;;;;18.00;16.70;;;;;;;15.10;100.00;98203.06;5121544;27;20205;-71
2021/06/12 01:40:21;;;;;;;18.03;16.70;;;;;;;14.96;100.00;98194.88;5125202;27;20205;-72
2021/06/12 01:42:49;;;;;;;18.67;17.37;;;;;;;14.94;100.00;98191.59;5124764;27;20197;-72
2021/06/12 01:45:18;;;;;;;17.77;16.57;;;;;;;14.91;100.00;98202.63;5125961;27;20595;-70
2021/06/12 01:47:46;;;;;;;18.60;17.20;;;;;;;14.89;100.00;98199.31;5134192;27;20766;-71
2021/06/12 01:50:16;;;;;;;19.73;18.07;;;;;;;14.83;100.00;98195.59;5130710;27;20206;-70
2021/06/12 01:52:44;;;;;;;18.10;16.87;;;;;;;14.87;100.00;98201.34;5128441;27;20224;-72
2021/06/12 01:55:13;;;;;;;17.40;16.10;;;;;;;14.74;100.00;98199.34;5123241;27;20200;-72
2021/06/12 01:57:42;;;;;;;19.70;18.30;;;;;;;14.72;100.00;98196.88;5126481;27;20216;-72
2021/06/12 02:00:11;;;;;;;18.83;17.53;;;;;;;14.64;100.00;98194.28;5120580;27;20204;-71
2021/06/12 02:02:40;;;;;;;19.50;18.00;;;;;;;14.64;100.00;98191.63;5128895;27;20197;-71
2021/06/12 02:05:09;;;;;;;19.70;18.30;;;;;;;14.58;100.00;98192.34;5123090;27;20209;-70
2021/06/12 02:07:37;;;;;;;20.10;18.53;;;;;;;14.61;100.00;98195.47;5122484;27;20344;-71
2021/06/12 02:10:06;;;;;;;19.50;17.90;;;;;;;14.77;100.00;98182.97;5120265;27;20219;-72
2021/06/12 02:12:35;;;;;;;19.17;17.43;;;;;;;14.84;100.00;98189.22;5124321;27;20229;-71
2021/06/12 02:15:06;;;;;;;18.60;17.27;;;;;;;14.69;100.00;98185.72;5121238;27;20200;-75
2021/06/12 02:17:34;;;;;;;19.13;17.83;;;;;;;14.64;100.00;98196.97;5125893;27;20197;-69
2021/06/12 02:20:06;;;;;;;18.73;17.43;;;;;;;14.52;100.00;98198.41;5128490;27;20208;-72
2021/06/12 02:22:36;;;;;;;17.70;16.40;;;;;;;14.58;100.00;98203.00;5127493;27;20236;-71
2021/06/12 02:25:04;;;;;;;18.67;17.27;;;;;;;14.54;100.00;98196.38;5127313;27;20205;-73
2021/06/12 02:27:33;;;;;;;18.67;17.37;;;;;;;14.51;100.00;98196.75;5122363;27;20201;-72
2021/06/12 02:30:02;;;;;;;19.93;18.43;;;;;;;14.41;100.00;98207.72;5124242;27;20204;-71
2021/06/12 02:32:29;;;;;;;18.53;17.23;;;;;;;14.36;100.00;98210.94;5125086;27;20228;-73
2021/06/12 02:34:57;;;;;;;19.87;18.17;;;;;;;14.40;100.00;98204.22;5127507;27;20200;-72
2021/06/12 02:37:26;;;;;;;19.57;18.17;;;;;;;14.51;100.00;98202.09;5118239;27;20750;-73
2021/06/12 02:39:53;;;;;;;18.63;17.33;;;;;;;14.55;100.00;98206.88;5123500;27;20205;-68
2021/06/12 02:42:21;;;;;;;18.70;17.30;;;;;;;14.44;100.00;98208.16;5125472;27;20612;-72
2021/06/12 02:44:48;;;;;;;17.77;16.43;;;;;;;14.54;100.00;98201.72;5123918;27;20235;-69
2021/06/12 02:47:16;;;;;;;18.87;17.47;;;;;;;14.72;100.00;98204.88;5125757;27;20231;-70
2021/06/12 02:49:44;;;;;;;20.57;18.50;;;;;;;14.51;100.00;98208.28;5124610;27;20294;-71
2021/06/12 02:52:15;;;;;;;18.53;17.20;;;;;;;14.45;100.00;98209.00;5124721;27;20224;-73
2021/06/12 02:54:45;;;;;;;19.07;17.53;;;;;;;14.43;100.00;98211.84;5127395;27;20221;-72
2021/06/12 02:57:14;;;;;;;19.43;17.83;;;;;;;14.51;100.00;98197.59;5124051;27;20220;-70
2021/06/12 02:59:44;;;;;;;17.80;16.60;;;;;;;14.48;100.00;98200.63;5126764;27;20205;-71
2021/06/12 03:02:13;;;;;;;17.80;16.40;;;;;;;14.50;100.00;98200.44;5127140;27;20216;-71
2021/06/12 03:04:42;;;;;;;19.33;17.73;;;;;;;14.35;100.00;98198.59;5125196;27;20239;-72
2021/06/12 03:07:11;;;;;;;17.77;16.60;;;;;;;14.45;100.00;98193.00;5126691;27;20224;-69
2021/06/12 03:09:40;;;;;;;18.30;16.87;;;;;;;14.36;100.00;98200.25;5123504;27;20205;-74
2021/06/12 03:12:10;;;;;;;18.73;17.23;;;;;;;14.26;100.00;98191.72;5121501;27;20699;-72
2021/06/12 03:14:40;;;;;;;19.47;17.77;;;;;;;14.29;100.00;98194.00;5123021;27;20288;-71
2021/06/12 03:17:08;;;;;;;19.77;18.27;;;;;;;14.21;100.00;98191.44;5123483;27;20216;-72
2021/06/12 03:19:37;;;;;;;18.37;16.93;;;;;;;14.25;100.00;98192.72;5129367;27;20271;-72
2021/06/12 03:22:04;;;;;;;19.63;18.20;;;;;;;14.26;100.00;98189.88;5133043;27;20195;-73
2021/06/12 03:24:32;;;;;;;19.27;17.97;;;;;;;14.22;100.00;98187.75;5125475;27;20212;-71
2021/06/12 03:27:01;;;;;;;18.77;17.27;;;;;;;14.25;100.00;98187.41;5125386;27;20232;-72
2021/06/12 03:29:30;;;;;;;20.10;18.67;;;;;;;14.26;100.00;98191.72;5125190;27;20205;-74
2021/06/12 03:31:59;;;;;;;20.00;18.47;;;;;;;14.25;100.00;98193.53;5124081;27;20332;-71
2021/06/12 03:34:27;;;;;;;19.87;18.30;;;;;;;14.28;100.00;98193.16;5126214;27;20241;-71
2021/06/12 03:36:55;;;;;;;20.37;18.40;;;;;;;14.23;100.00;98190.22;5135758;27;20220;-73
2021/06/12 03:39:23;;;;;;;19.33;17.73;;;;;;;14.27;100.00;98190.72;5124937;27;20480;-74
2021/06/12 03:41:51;;;;;;;20.13;18.60;;;;;;;14.30;100.00;98193.00;5117496;27;20740;-70
2021/06/12 03:44:19;;;;;;;20.27;18.77;;;;;;;14.28;100.00;98187.84;5119392;27;20216;-71
2021/06/12 03:46:50;;;;;;;18.87;17.27;;;;;;;14.25;100.00;98190.06;5122733;27;20231;-70
2021/06/12 03:49:18;;;;;;;19.57;18.13;;;;;;;14.34;100.00;98194.28;5123513;27;20204;-70
2021/06/12 03:51:47;;;;;;;19.23;17.83;;;;;;;14.36;100.00;98199.41;5124884;27;20197;-71
2021/06/12 03:54:15;;;;;;;20.27;18.70;;;;;;;14.37;100.00;98199.25;5127669;27;20201;-70
2021/06/12 03:56:43;;;;;;;19.60;18.20;;;;;;;14.34;100.00;98199.63;5129673;27;20236;-71
2021/06/12 03:59:11;;;;;;;19.73;18.07;;;;;;;14.37;100.00;98206.41;5125527;27;20795;-70
2021/06/12 04:01:39;;;;;;;20.77;19.20;;;;;;;14.55;100.00;98193.56;5133776;27;20710;-71
2021/06/12 04:04:08;;;;;;;20.20;18.57;;;;;;;14.68;100.00;98200.06;5129886;27;20204;-71
2021/06/12 04:06:35;;;;;;;19.37;17.87;;;;;;;14.65;100.00;98195.94;5127134;27;20224;-71
2021/06/12 04:09:03;;;;;;;19.10;17.70;;;;;;;14.63;100.00;98200.63;5121747;27;20426;-66
2021/06/12 04:11:30;;;;;;;19.93;18.27;;;;;;;14.81;100.00;98199.44;5123031;27;20236;-67
2021/06/12 04:13:59;;;;;;;21.37;19.60;;;;;;;14.79;100.00;98204.13;5123872;27;20229;-66
2021/06/12 04:16:27;;;;;;;20.03;18.63;;;;;;;14.80;100.00;98203.97;5126279;27;20217;-67
2021/06/12 04:18:54;;;;;;;19.97;18.47;;;;;;;14.94;100.00;98215.59;5130475;27;20204;-67
2021/06/12 04:21:23;;;;;;;19.20;17.77;;;;;;;15.13;100.00;98216.84;5130121;27;20801;-66
2021/06/12 04:23:50;;;;;;;19.50;18.10;;;;;;;15.25;100.00;98217.19;5130393;27;20197;-66
2021/06/12 04:26:18;;;;;;;19.37;17.93;;;;;;;15.33;100.00;98222.41;5122040;27;20228;-66
2021/06/12 04:28:45;;;;;;;20.47;18.93;;;;;;;15.42;100.00;98224.97;5131444;27;20592;-66
2021/06/12 04:31:13;;;;;;;18.37;17.07;;;;;;;15.50;100.00;98232.88;5131449;27;20205;-65
2021/06/12 04:33:40;;;;;;;19.70;18.30;;;;;;;15.59;100.00;98221.03;5126860;27;20231;-66
2021/06/12 04:36:08;;;;;;;17.77;16.40;;;;;;;15.68;100.00;98234.25;5126302;27;20220;-66
2021/06/12 04:38:37;;;;;;;18.50;17.00;;;;;;;15.72;100.00;98235.53;5127898;27;20672;-66
2021/06/12 04:41:04;;;;;;;17.80;16.50;;;;;;;15.73;100.00;98227.34;5134936;27;20197;-66
2021/06/12 04:43:32;;;;;;;18.73;17.23;;;;;;;15.91;100.00;98224.22;5129333;27;20205;-67
2021/06/12 04:45:59;;;;;;;18.80;17.40;;;;;;;16.04;100.00;98226.19;5128799;27;20221;-66
2021/06/12 04:48:27;;;;;;;18.90;17.23;;;;;;;15.99;100.00;98223.28;5124995;27;20718;-67
2021/06/12 04:50:54;;;;;;;19.27;17.70;;;;;;;16.17;100.00;98229.97;5124251;27;20205;-65
2021/06/12 04:53:22;;;;;;;18.33;16.83;;;;;;;16.22;100.00;98237.44;5130338;27;20228;-66
2021/06/12 04:55:51;;;;;;;17.60;16.43;;;;;;;16.30;100.00;98243.47;5133619;27;20692;-65
2021/06/12 04:58:18;;;;;;;19.10;17.57;;;;;;;16.30;100.00;98239.94;5128682;27;20590;-67
2021/06/12 05:00:48;;;;;;;17.23;16.07;;;;;;;16.29;100.00;98239.13;5132153;27;20207;-67
2021/06/12 05:03:16;;;;;;;18.30;16.80;;;;;;;16.45;100.00;98239.84;5125075;27;20208;-66
2021/06/12 05:05:43;;;;;;;17.87;16.67;;;;;;;16.46;100.00;98239.63;5130190;27;20601;-67
2021/06/12 05:08:11;;;;;;;18.13;16.83;;;;;;;16.55;100.00;98242.16;5134108;27;20765;-68
2021/06/12 05:10:38;;;;;;;18.90;17.40;;;;;;;16.59;100.00;98240.75;5122361;27;21170;-66
2021/06/12 05:13:07;;;;;;;17.00;15.70;;;;;;;16.76;100.00;98235.91;5124621;27;20222;-71
2021/06/12 05:15:35;;;;;;;17.40;16.20;;;;;;;16.90;99.53;98226.91;5128723;27;20218;-68
2021/06/12 05:18:05;;;;;;;18.43;16.93;;;;;;;16.92;99.83;98229.41;5124515;27;20233;-70
2021/06/12 05:20:35;;;;;;;16.83;15.63;;;;;;;17.10;98.76;98212.81;5124633;27;20681;-68
2021/06/12 05:23:02;;;;;;;17.23;15.93;;;;;;;17.10;99.67;98223.53;5120807;27;20200;-69
2021/06/12 05:25:30;;;;;;;16.93;15.60;;;;;;;17.24;98.89;98224.41;5133664;27;20221;-69
2021/06/12 05:27:58;;;;;;;17.90;16.50;;;;;;;17.56;96.05;98219.28;5125619;27;20204;-71
2021/06/12 05:30:27;;;;;;;17.33;16.03;;;;;;;17.45;98.65;98220.75;5125859;27;20216;-70
2021/06/12 05:32:54;;;;;;;17.53;16.13;;;;;;;17.82;94.72;98227.59;5130277;27;20230;-68
2021/06/12 05:35:23;;;;;;;18.23;16.57;;;;;;;17.98;93.14;98226.34;5129347;27;20257;-68
2021/06/12 05:37:50;;;;;;;16.63;15.33;;;;;;;17.91;92.97;98221.00;5128248;27;20201;-69
2021/06/12 05:40:17;;;;;;;17.30;15.87;;;;;;;18.00;92.77;98216.25;5126597;27;20616;-68
2021/06/12 05:42:45;;;;;;;17.67;16.37;;;;;;;17.98;93.12;98220.97;5130807;27;20200;-68
2021/06/12 05:45:12;;;;;;;16.57;15.47;;;;;;;17.89;93.96;98220.38;5135681;27;20211;-67
2021/06/12 05:47:41;;;;;;;16.23;15.23;;;;;;;18.02;93.77;98212.34;5131776;27;20433;-69
2021/06/12 05:50:10;;;;;;;16.70;15.30;;;;;;;18.37;90.87;98216.63;5132540;27;20209;-70
2021/06/12 05:52:37;;;;;;;17.47;16.23;;;;;;;18.52;88.57;98221.78;5129914;27;20224;-70
2021/06/12 05:55:06;;;;;;;17.83;16.33;;;;;;;18.52;89.00;98219.94;5138458;27;20208;-68
2021/06/12 05:57:33;;;;;;;17.00;15.80;;;;;;;18.70;87.91;98215.75;5127175;27;20209;-66
2021/06/12 06:00:01;;;;;;;17.00;15.37;;;;;;;18.56;88.47;98217.66;5132026;27;20698;-69
2021/06/12 06:02:32;;;;;;;15.53;14.53;;;;;;;18.73;88.19;98222.56;5125677;27;20212;-68
2021/06/12 06:05:01;;;;;;;17.53;16.33;;;;;;;18.98;86.61;98220.00;5130404;27;20204;-69
2021/06/12 06:07:29;;;;;;;16.40;15.10;;;;;;;19.28;84.18;98214.09;5125517;27;20233;-67
2021/06/12 06:09:57;;;;;;;16.50;15.30;;;;;;;19.28;84.45;98221.31;5128306;27;20594;-69
2021/06/12 06:12:25;;;;;;;16.80;15.50;;;;;;;18.82;86.23;98217.78;5125154;27;20593;-69
2021/06/12 06:14:52;;;;;;;16.23;15.07;;;;;;;19.15;85.13;98211.50;5130404;27;20665;-68
2021/06/12 06:17:20;;;;;;;16.23;15.03;;;;;;;19.46;83.41;98216.06;5123119;27;20239;-69
2021/06/12 06:19:48;;;;;;;16.63;15.43;;;;;;;19.50;83.83;98217.25;5113803;27;20216;-69
2021/06/12 06:22:16;;;;;;;17.13;15.70;;;;;;;19.95;80.47;98224.44;5136055;27;20731;-69
2021/06/12 06:24:44;;;;;;;18.00;16.47;;;;;;;19.88;80.16;98228.19;5132765;27;20667;-67
2021/06/12 06:27:11;;;;;;;16.20;15.00;;;;;;;19.80;80.85;98231.94;5124384;27;20221;-70
2021/06/12 06:29:39;;;;;;;15.53;14.40;;;;;;;20.08;79.34;98230.72;5129126;27;20384;-69
2021/06/12 06:32:07;;;;;;;16.30;15.23;;;;;;;20.19;78.66;98218.44;5128219;27;20203;-69
2021/06/12 06:34:35;;;;;;;15.10;14.00;;;;;;;19.99;80.01;98218.63;5135384;27;21003;-69
2021/06/12 06:37:02;;;;;;;15.07;13.97;;;;;;;20.28;78.63;98219.00;5123550;27;20228;-69
2021/06/12 06:39:31;;;;;;;15.83;14.73;;;;;;;20.52;78.53;98218.09;5125159;27;20208;-68
2021/06/12 06:41:59;;;;;;;15.17;13.97;;;;;;;20.73;75.50;98221.41;5122758;27;20219;-67
2021/06/12 06:44:26;;;;;;;15.43;14.33;;;;;;;21.06;74.31;98217.53;5125312;27;20417;-69
2021/06/12 06:46:53;;;;;;;14.87;13.67;;;;;;;21.22;73.60;98215.25;5132807;27;20230;-69
2021/06/12 06:49:22;;;;;;;14.47;13.47;;;;;;;21.45;71.60;98219.09;5121942;27;20204;-69
2021/06/12 06:51:50;;;;;;;14.47;13.47;;;;;;;21.25;72.33;98226.41;5120773;27;20213;-68
2021/06/12 06:54:17;;;;;;;14.90;13.67;;;;;;;21.25;71.91;98218.31;5121649;27;20217;-68
2021/06/12 06:56:46;;;;;;;14.93;13.80;;;;;;;21.05;72.41;98215.06;5126477;27;20364;-66
2021/06/12 06:59:14;;;;;;;14.13;13.10;;;;;;;21.19;73.18;98216.50;5127220;27;20988;-66
2021/06/12 07:01:42;;;;;;;15.23;14.03;;;;;;;21.27;73.14;98222.66;5126831;27;20203;-67
2021/06/12 07:04:09;;;;;;;15.30;13.80;;;;;;;21.46;72.21;98218.03;5126137;27;20200;-66
2021/06/12 07:06:37;;;;;;;15.00;14.00;;;;;;;21.42;72.78;98222.25;5123858;27;20224;-67
2021/06/12 07:09:05;;;;;;;14.23;13.33;;;;;;;21.81;69.97;98217.34;5130779;27;20216;-67
2021/06/12 07:11:32;;;;;;;13.93;12.93;;;;;;;21.83;69.49;98209.84;5129067;27;20554;-67
2021/06/12 07:14:01;;;;;;;13.47;12.57;;;;;;;22.02;68.86;98217.81;5125060;27;20223;-67
2021/06/12 07:16:28;;;;;;;13.57;12.63;;;;;;;21.77;70.32;98216.13;5128061;27;20224;-67
2021/06/12 07:18:57;;;;;;;23.90;12.90;;;;;;;21.82;70.22;98213.59;5132945;27;20200;-66
2021/06/12 07:21:25;;;;;;;13.63;12.73;;;;;;;21.85;69.83;98207.72;5127889;27;20230;-66
2021/06/12 07:23:52;;;;;;;12.37;11.57;;;;;;;21.73;70.68;98210.41;5133274;27;20956;-68
2021/06/12 07:26:19;;;;;;;12.77;11.87;;;;;;;21.94;70.52;98209.03;5129164;27;20225;-68
2021/06/12 07:28:47;;;;;;;14.00;12.77;;;;;;;22.16;70.10;98207.63;5123488;27;20201;-67
2021/06/12 07:31:35;;;;;;;12.33;11.33;;;;;;;22.51;68.49;98202.22;5128566;27;20720;-67
2021/06/12 07:34:02;;;;;;;13.53;12.43;;;;;;;22.47;68.42;98206.47;5125873;27;20216;-68
2021/06/12 07:36:30;;;;;;;12.67;11.63;;;;;;;22.33;68.40;98202.34;5130969;27;20235;-67
2021/06/12 07:38:57;;;;;;;13.70;12.63;;;;;;;22.39;67.89;98201.41;5137334;27;20218;-67
2021/06/12 07:41:25;;;;;;;12.17;11.17;;;;;;;22.35;68.53;98208.34;5138824;27;20250;-70
2021/06/12 07:43:52;;;;;;;13.03;11.97;;;;;;;22.46;67.46;98204.81;5133607;27;20193;-72
2021/06/12 07:46:20;;;;;;;13.97;12.87;;;;;;;22.55;66.84;98199.88;5136497;27;20239;-71
2021/06/12 07:48:49;;;;;;;12.77;11.77;;;;;;;22.52;66.44;98203.06;5129333;27;20217;-71
2021/06/12 07:51:16;;;;;;;13.07;12.13;;;;;;;22.56;66.21;98204.22;5124054;27;20200;-71
2021/06/12 07:53:44;;;;;;;11.83;10.93;;;;;;;22.46;67.61;98206.72;5136507;27;20216;-70
2021/06/12 07:56:11;;;;;;;11.60;10.80;;;;;;;22.27;68.69;98214.91;5137012;27;20224;-70
2021/06/12 07:58:39;;;;;;;9.67;8.90;;;;;;;22.58;65.67;98210.22;5131544;27;20243;-71
2021/06/12 08:01:06;;;;;;;10.27;9.57;;;;;;;22.89;65.38;98218.97;5138425;27;20208;-71
2021/06/12 08:03:36;;;;;;;8.83;8.23;;;;;;;23.02;61.70;98219.75;5129622;27;20246;-74
2021/06/12 08:06:05;;;;;;;8.80;8.20;;;;;;;23.11;61.20;98211.03;5129018;27;20220;-68
2021/06/12 08:08:32;;;;;;;7.40;6.90;;;;;;;23.25;59.50;98202.66;5132667;27;20215;-68
2021/06/12 08:11:00;;;;;;;7.00;6.50;;;;;;;23.32;57.83;98203.34;5130442;27;20221;-68
2021/06/12 08:13:27;;;;;;;7.43;6.83;;;;;;;23.61;56.67;98206.00;5133175;27;20234;-67
2021/06/12 08:15:55;;;;;;;7.13;6.67;;;;;;;23.56;57.06;98195.94;5135248;27;20219;-69
2021/06/12 08:18:22;;;;;;;7.70;7.30;;;;;;;23.60;56.93;98192.75;5130496;27;20201;-68
2021/06/12 08:20:50;;;;;;;9.03;8.43;;;;;;;23.22;58.53;98200.41;5137163;27;20201;-67
2021/06/12 08:23:19;;;;;;;7.50;7.00;;;;;;;23.35;59.60;98205.56;5132774;27;20313;-68
2021/06/12 08:25:47;;;;;;;7.47;6.70;;;;;;;23.47;57.81;98202.78;5133259;27;20585;-68
2021/06/12 08:28:15;;;;;;;7.03;6.50;;;;;;;23.44;57.89;98203.28;5131526;27;20201;-68
2021/06/12 08:30:42;;;;;;;6.90;6.37;;;;;;;23.77;58.50;98203.56;5130548;27;20207;-68
2021/06/12 08:33:10;;;;;;;7.27;6.73;;;;;;;23.59;56.86;98208.13;5129779;27;20205;-67
2021/06/12 08:35:38;;;;;;;7.40;6.90;;;;;;;23.53;58.65;98209.94;5129727;27;20224;-67
2021/06/12 08:38:07;;;;;;;7.40;6.90;;;;;;;23.44;57.59;98214.09;5123066;27;20201;-68
2021/06/12 08:40:36;;;;;;;7.07;6.50;;;;;;;23.55;56.99;98202.41;5128944;27;20208;-68
2021/06/12 08:43:05;;;;;;;7.43;6.97;;;;;;;23.79;56.87;98207.66;5126466;27;20201;-68
2021/06/12 08:45:33;;;;;;;6.90;6.40;;;;;;;24.07;55.81;98216.00;5125318;27;20678;-68
2021/06/12 08:48:02;;;;;;;7.57;6.97;;;;;;;23.67;56.81;98213.13;5126551;27;20654;-68
2021/06/12 08:50:31;;;;;;;7.07;6.67;;;;;;;23.93;55.92;98210.88;5126149;27;20236;-68
2021/06/12 08:52:59;;;;;;;6.90;6.40;;;;;;;23.57;56.63;98218.38;5124962;27;20217;-68
2021/06/12 08:55:40;;;;;;;7.27;6.77;;;;;;;23.74;57.07;98204.88;5133747;27;20245;-68
2021/06/12 08:58:08;;;;;;;7.97;7.37;;;;;;;23.84;57.08;98221.25;5123600;27;20517;-68
2021/06/12 09:00:35;;;;;;;6.47;6.17;;;;;;;24.06;56.29;98212.44;5132179;27;20204;-68
2021/06/12 09:03:09;;;;;;;7.10;6.50;;;;;;;24.24;54.14;98208.66;5126007;27;20205;-68
2021/06/12 09:05:41;;;;;;;7.10;6.40;;;;;;;24.35;54.47;98206.94;5129251;27;20665;-68
2021/06/12 09:08:10;;;;;;;6.00;5.60;;;;;;;24.35;52.67;98214.22;5132615;27;20212;-68
2021/06/12 09:10:55;;;;;;;5.60;5.20;;;;;;;24.44;52.98;98215.47;5128511;27;20216;-68
2021/06/12 09:13:43;;;;;;;4.70;4.40;;;;;;;24.63;52.18;98207.84;5126496;27;20208;-68
2021/06/12 09:16:26;;;;;;;5.33;4.90;;;;;;;24.68;50.60;98212.50;5132225;27;20354;-68
2021/06/12 09:19:13;;;;;;;5.67;5.17;;;;;;;24.91;48.20;98207.94;5127959;27;20208;-68
2021/06/12 09:21:42;;;;;;;4.67;4.30;;;;;;;24.61;49.26;98211.88;5126825;27;20211;-68
2021/06/12 09:24:21;;;;;;;5.43;4.90;;;;;;;24.49;50.11;98207.41;5123530;27;20243;-68
2021/06/12 09:26:51;;;;;;;5.73;5.30;;;;;;;24.26;49.62;98208.44;5123414;27;20217;-68
2021/06/12 09:29:20;;;;;;;5.10;4.67;;;;;;;24.54;49.37;98212.06;5122535;27;20208;-69
2021/06/12 09:31:49;;;;;;;5.25;4.85;;;;;;;24.75;48.77;98210.47;5124287;27;20973;-69
2021/06/12 09:34:19;;;;;;;5.13;4.83;;;;;;;24.73;48.75;98204.44;5122934;27;20228;-68
2021/06/12 09:36:48;;;;;;;4.83;4.53;;;;;;;24.69;48.96;98203.31;5125414;27;20227;-68
2021/06/12 09:39:17;;;;;;;5.07;4.68;;;;;;;24.76;48.59;98206.69;5125329;27;20439;-67
2021/06/12 09:41:46;;;;;;;4.57;4.27;;;;;;;24.60;47.55;98204.81;5129693;27;20481;-68
2021/06/12 09:47:21;;;;;;;4.53;4.30;;;;;;;25.17;46.64;98187.38;5136833;27;20424;-68
2021/06/12 09:49:50;;;;;;;4.73;4.17;;;;;;;25.21;46.25;98184.97;5112576;27;20212;-67
2021/06/12 09:52:19;;;;;;;4.10;3.73;;;;;;;25.25;45.91;98189.63;5116015;27;20229;-68
2021/06/12 09:54:49;;;;;;;4.17;3.87;;;;;;;25.37;45.62;98200.31;5114988;27;20200;-68
2021/06/12 09:57:18;;;;;;;4.50;4.10;;;;;;;25.19;45.77;98187.09;5118552;27;20224;-68
2021/06/12 09:59:47;;;;;;;4.20;3.80;;;;;;;24.96;45.83;98192.56;5120737;27;20325;-73
2021/06/12 10:02:37;;;;;;;4.87;4.43;;;;;;;24.98;46.79;98184.19;5117892;27;20611;-72
2021/06/12 10:05:06;;;;;;;4.67;4.23;;;;;;;25.32;45.74;98183.16;5119937;27;20232;-71
2021/06/12 10:07:33;;;;;;;4.57;4.20;;;;;;;25.06;47.71;98191.84;5119143;27;20212;-73
2021/06/12 10:10:07;;;;;;;5.27;4.83;;;;;;;25.37;46.44;98192.19;5116905;27;20212;-72
2021/06/12 10:12:35;;;;;;;4.73;4.37;;;;;;;25.63;45.25;98192.47;5122481;27;20212;-71
2021/06/12 10:15:05;;;;;;;4.33;4.03;;;;;;;25.29;47.21;98198.06;5121276;27;20204;-72
2021/06/12 10:17:38;;;;;;;4.97;4.47;;;;;;;25.21;47.67;98187.69;5118871;27;20576;-71
2021/06/12 10:20:07;;;;;;;4.83;4.43;;;;;;;25.29;47.03;98190.75;5115000;27;20559;-73
2021/06/12 10:22:36;;;;;;;4.20;3.90;;;;;;;25.51;48.20;98186.38;5118354;27;20205;-71
2021/06/12 10:25:04;;;;;;;4.17;3.87;;;;;;;25.36;48.37;98187.84;5118298;27;20222;-71
2021/06/12 10:27:32;;;;;;;4.83;4.40;;;;;;;25.32;48.14;98184.00;5120134;27;20225;-71
2021/06/12 10:29:59;;;;;;;4.40;4.00;;;;;;;25.32;47.98;98188.59;5119030;27;20601;-73
2021/06/12 10:32:27;;;;;;;4.10;3.90;;;;;;;25.47;46.41;98186.06;5120807;27;20201;-71
2021/06/12 10:34:57;;;;;;;5.23;3.90;;;;;;;25.67;47.77;98190.03;5120329;27;20209;-72
2021/06/12 10:37:24;;;;;;;4.03;3.80;;;;;;;25.46;46.54;98183.56;5120801;27;20224;-70
2021/06/12 10:40:03;;;;;;;4.23;4.00;;;;;;;25.63;47.12;98181.59;5118927;27;20292;-70
2021/06/12 10:42:30;;;;;;;4.80;4.40;;;;;;;25.92;46.01;98180.47;5117736;27;20538;-72
2021/06/12 10:44:58;;;;;;;4.33;3.93;;;;;;;26.07;45.44;98174.34;5116868;27;20675;-71
2021/06/12 10:47:41;;;;;;;4.40;3.92;;;;;;;25.77;46.63;98170.31;5114322;27;20912;-72
2021/06/12 10:50:33;;;;;;;4.83;4.53;;;;;;;26.19;45.17;98174.97;5112246;27;20201;-71
2021/06/12 10:53:33;;;;;;;4.57;4.20;;;;;;;26.36;45.41;98171.28;5117080;27;20266;-70
2021/06/12 10:56:02;;;;;;;4.50;4.20;;;;;;;26.19;44.22;98177.69;5087370;27;20436;-72
2021/06/12 10:58:47;;;;;;;4.60;4.20;;;;;;;26.08;44.69;98173.25;5108336;27;20445;-69
2021/06/12 11:01:17;;;;;;;4.25;3.75;;;;;;;26.34;44.59;98170.75;5103223;27;20435;-72
2021/06/12 11:03:52;;;;;;;4.55;4.25;;;;;;;26.73;43.38;98164.94;5101092;27;20431;-72
2021/06/12 11:06:51;;;;;;;4.05;3.75;;;;;;;27.26;42.56;98166.75;5099353;27;21034;-72
2021/06/12 11:09:40;;;;;;;4.35;4.15;;;;;;;27.22;41.84;98162.94;5098726;27;20458;-70
2021/06/12 11:12:36;;;;;;;4.13;3.83;;;;;;;26.72;43.31;98160.59;5103660;27;20447;-70
2021/06/12 11:15:07;;;;;;;4.53;4.15;;;;;;;26.42;43.74;98153.94;5102329;27;20512;-71
2021/06/12 11:17:35;;;;;;;4.50;4.13;;;;;;;26.67;43.81;98161.38;5104875;27;20694;-72
2021/06/12 11:20:28;;;;;;;4.30;4.00;;;;;;;27.22;41.93;98162.94;5104349;27;20423;-71
2021/06/12 11:23:01;;;;;;;4.25;3.85;;;;;;;27.59;42.20;98157.28;5102387;27;20447;-70
2021/06/12 11:25:54;;;;;;;4.33;4.03;;;;;;;27.21;42.45;98158.56;5105934;27;20435;-73
2021/06/12 11:28:26;;;;;;;4.82;3.42;;;;;;;27.38;42.47;98145.53;5100724;27;20435;-69
2021/06/12 11:31:10;;;;;;;4.80;4.40;;;;;;;26.97;42.70;98156.34;5104153;27;20435;-72
2021/06/12 11:33:38;;;;;;;4.15;3.85;;;;;;;27.04;44.19;98151.44;5102661;27;20472;-69
2021/06/12 11:36:05;;;;;;;4.00;3.80;;;;;;;27.65;42.33;98149.94;5105171;27;20435;-71